Airport ID:KTSP
Update Time (UTC):04/03/2021 11:34
Wind Speed (Knots):3
Wind Direction (Magnetic):310
Temperature (°C):-0.1
Dew Point (°C):-4.1
Humidity (%):73.8
Altimeter (inHg):30.14
Density Altitude (Feet):
Visibility (Miles):10
Clouds (Hundreds of feet):CLR
Present Weather:
METAR:METAR KTSP 041130Z AUTO 00000KT 10SM CLR M00/M04 A3014 RMK AO2

The data displayed is for advisory purposes only and is not to be used for flight planning or operations.